sensor_id;sensor_type;location;lat;lon;timestamp;temperature;humidity
38020;DHT22;23829;51.350;17.286;2023-09-30T00:01:22;31.70;41.30
38020;DHT22;23829;51.350;17.286;2023-09-30T00:03:48;31.70;41.40
38020;DHT22;23829;51.350;17.286;2023-09-30T00:06:15;31.60;41.50
38020;DHT22;23829;51.350;17.286;2023-09-30T00:08:41;31.80;41.30
38020;DHT22;23829;51.350;17.286;2023-09-30T00:11:09;31.80;41.30
38020;DHT22;23829;51.350;17.286;2023-09-30T00:13:35;31.80;41.20
38020;DHT22;23829;51.350;17.286;2023-09-30T00:16:02;31.60;41.60
38020;DHT22;23829;51.350;17.286;2023-09-30T00:18:28;31.80;40.70
38020;DHT22;23829;51.350;17.286;2023-09-30T00:20:54;31.60;41.70
38020;DHT22;23829;51.350;17.286;2023-09-30T00:23:20;31.80;41.00
38020;DHT22;23829;51.350;17.286;2023-09-30T00:25:47;31.80;41.10
38020;DHT22;23829;51.350;17.286;2023-09-30T00:28:16;31.80;40.90
38020;DHT22;23829;51.350;17.286;2023-09-30T00:30:42;32.00;40.20
38020;DHT22;23829;51.350;17.286;2023-09-30T00:33:10;31.80;41.50
38020;DHT22;23829;51.350;17.286;2023-09-30T00:35:36;31.80;41.20
38020;DHT22;23829;51.350;17.286;2023-09-30T00:38:03;31.90;40.70
38020;DHT22;23829;51.350;17.286;2023-09-30T00:40:29;32.00;40.60
38020;DHT22;23829;51.350;17.286;2023-09-30T00:42:58;32.20;40.60
38020;DHT22;23829;51.350;17.286;2023-09-30T00:45:24;32.20;40.20
38020;DHT22;23829;51.350;17.286;2023-09-30T00:47:51;32.60;39.40
38020;DHT22;23829;51.350;17.286;2023-09-30T00:50:19;32.40;40.30
38020;DHT22;23829;51.350;17.286;2023-09-30T00:52:47;32.50;39.70
38020;DHT22;23829;51.350;17.286;2023-09-30T00:55:15;32.70;40.00
38020;DHT22;23829;51.350;17.286;2023-09-30T00:57:42;32.70;39.50
38020;DHT22;23829;51.350;17.286;2023-09-30T01:00:11;32.80;39.10
38020;DHT22;23829;51.350;17.286;2023-09-30T01:02:41;32.70;39.10
38020;DHT22;23829;51.350;17.286;2023-09-30T01:05:08;32.80;39.10
38020;DHT22;23829;51.350;17.286;2023-09-30T01:07:35;33.00;38.70
38020;DHT22;23829;51.350;17.286;2023-09-30T01:10:02;32.90;39.10
38020;DHT22;23829;51.350;17.286;2023-09-30T01:12:29;32.60;39.70
38020;DHT22;23829;51.350;17.286;2023-09-30T01:14:59;32.60;39.50
38020;DHT22;23829;51.350;17.286;2023-09-30T01:17:30;32.70;39.30
38020;DHT22;23829;51.350;17.286;2023-09-30T01:20:00;32.90;39.30
38020;DHT22;23829;51.350;17.286;2023-09-30T01:22:26;32.80;39.40
38020;DHT22;23829;51.350;17.286;2023-09-30T01:24:55;33.10;38.80
38020;DHT22;23829;51.350;17.286;2023-09-30T01:27:21;32.80;39.90
38020;DHT22;23829;51.350;17.286;2023-09-30T01:29:48;32.70;40.10
38020;DHT22;23829;51.350;17.286;2023-09-30T01:32:15;32.70;39.50
38020;DHT22;23829;51.350;17.286;2023-09-30T01:34:41;32.80;40.00
38020;DHT22;23829;51.350;17.286;2023-09-30T01:37:10;32.70;39.80
38020;DHT22;23829;51.350;17.286;2023-09-30T01:39:36;32.70;41.10
38020;DHT22;23829;51.350;17.286;2023-09-30T01:42:02;33.10;42.20
38020;DHT22;23829;51.350;17.286;2023-09-30T01:44:32;33.00;43.20
38020;DHT22;23829;51.350;17.286;2023-09-30T01:46:58;32.60;42.90
38020;DHT22;23829;51.350;17.286;2023-09-30T01:49:25;32.60;44.40
38020;DHT22;23829;51.350;17.286;2023-09-30T01:51:52;32.60;44.70
38020;DHT22;23829;51.350;17.286;2023-09-30T01:54:19;32.70;44.00
38020;DHT22;23829;51.350;17.286;2023-09-30T01:56:45;32.60;44.80
38020;DHT22;23829;51.350;17.286;2023-09-30T01:59:11;32.40;44.60
38020;DHT22;23829;51.350;17.286;2023-09-30T02:01:38;32.50;45.10
38020;DHT22;23829;51.350;17.286;2023-09-30T02:04:04;32.40;45.10
38020;DHT22;23829;51.350;17.286;2023-09-30T02:06:32;32.60;45.00
38020;DHT22;23829;51.350;17.286;2023-09-30T02:08:59;32.60;44.40
38020;DHT22;23829;51.350;17.286;2023-09-30T02:11:25;32.50;45.00
38020;DHT22;23829;51.350;17.286;2023-09-30T02:13:51;32.40;44.80
38020;DHT22;23829;51.350;17.286;2023-09-30T02:16:18;32.40;44.50
38020;DHT22;23829;51.350;17.286;2023-09-30T02:18:44;32.10;45.50
38020;DHT22;23829;51.350;17.286;2023-09-30T02:21:16;32.20;45.30
38020;DHT22;23829;51.350;17.286;2023-09-30T02:23:43;32.40;45.30
38020;DHT22;23829;51.350;17.286;2023-09-30T02:26:17;32.40;45.00
38020;DHT22;23829;51.350;17.286;2023-09-30T02:28:43;32.30;44.90
38020;DHT22;23829;51.350;17.286;2023-09-30T02:31:09;32.20;45.20
38020;DHT22;23829;51.350;17.286;2023-09-30T02:33:36;32.10;45.50
38020;DHT22;23829;51.350;17.286;2023-09-30T02:36:03;32.10;45.40
38020;DHT22;23829;51.350;17.286;2023-09-30T02:38:33;32.10;45.80
38020;DHT22;23829;51.350;17.286;2023-09-30T02:41:01;32.10;45.70
38020;DHT22;23829;51.350;17.286;2023-09-30T02:43:28;32.20;45.20
38020;DHT22;23829;51.350;17.286;2023-09-30T02:45:55;32.20;45.00
38020;DHT22;23829;51.350;17.286;2023-09-30T02:48:23;31.90;45.40
38020;DHT22;23829;51.350;17.286;2023-09-30T02:50:49;31.90;45.50
38020;DHT22;23829;51.350;17.286;2023-09-30T02:53:15;31.70;45.50
38020;DHT22;23829;51.350;17.286;2023-09-30T02:55:42;31.70;46.00
38020;DHT22;23829;51.350;17.286;2023-09-30T02:58:11;31.80;45.70
38020;DHT22;23829;51.350;17.286;2023-09-30T03:00:38;31.70;45.80
38020;DHT22;23829;51.350;17.286;2023-09-30T03:03:05;31.70;46.00
38020;DHT22;23829;51.350;17.286;2023-09-30T03:05:31;31.90;45.40
38020;DHT22;23829;51.350;17.286;2023-09-30T03:08:01;31.60;46.10
38020;DHT22;23829;51.350;17.286;2023-09-30T03:10:27;31.60;45.70
38020;DHT22;23829;51.350;17.286;2023-09-30T03:12:54;31.70;45.50
38020;DHT22;23829;51.350;17.286;2023-09-30T03:15:20;31.40;45.70
38020;DHT22;23829;51.350;17.286;2023-09-30T03:17:47;31.40;46.10
38020;DHT22;23829;51.350;17.286;2023-09-30T03:20:14;31.40;45.90
38020;DHT22;23829;51.350;17.286;2023-09-30T03:22:45;31.60;45.00
38020;DHT22;23829;51.350;17.286;2023-09-30T03:25:17;31.70;45.30
38020;DHT22;23829;51.350;17.286;2023-09-30T03:27:45;31.60;45.10
38020;DHT22;23829;51.350;17.286;2023-09-30T03:30:16;31.70;45.00
38020;DHT22;23829;51.350;17.286;2023-09-30T03:32:43;31.60;45.50
38020;DHT22;23829;51.350;17.286;2023-09-30T03:35:10;31.40;45.30
38020;DHT22;23829;51.350;17.286;2023-09-30T03:37:41;31.30;45.50
38020;DHT22;23829;51.350;17.286;2023-09-30T03:40:07;31.20;45.20
38020;DHT22;23829;51.350;17.286;2023-09-30T03:43:01;31.30;45.10
38020;DHT22;23829;51.350;17.286;2023-09-30T03:45:27;30.80;46.30
38020;DHT22;23829;51.350;17.286;2023-09-30T03:47:53;30.90;46.00
38020;DHT22;23829;51.350;17.286;2023-09-30T03:50:19;31.20;45.80
38020;DHT22;23829;51.350;17.286;2023-09-30T03:52:47;31.10;45.80
38020;DHT22;23829;51.350;17.286;2023-09-30T03:55:14;31.20;45.40
38020;DHT22;23829;51.350;17.286;2023-09-30T03:57:41;31.10;45.30
38020;DHT22;23829;51.350;17.286;2023-09-30T04:00:08;30.90;45.60
38020;DHT22;23829;51.350;17.286;2023-09-30T04:02:40;31.00;46.10
38020;DHT22;23829;51.350;17.286;2023-09-30T04:05:09;31.20;45.60
38020;DHT22;23829;51.350;17.286;2023-09-30T04:07:38;30.90;46.00
38020;DHT22;23829;51.350;17.286;2023-09-30T04:10:04;30.70;46.10
38020;DHT22;23829;51.350;17.286;2023-09-30T04:12:30;30.70;46.10
38020;DHT22;23829;51.350;17.286;2023-09-30T04:14:58;31.20;45.50
38020;DHT22;23829;51.350;17.286;2023-09-30T04:17:26;31.00;46.00
38020;DHT22;23829;51.350;17.286;2023-09-30T04:19:55;30.60;46.20
38020;DHT22;23829;51.350;17.286;2023-09-30T04:22:21;30.70;46.30
38020;DHT22;23829;51.350;17.286;2023-09-30T04:24:48;30.70;46.30
38020;DHT22;23829;51.350;17.286;2023-09-30T04:27:18;30.80;46.10
38020;DHT22;23829;51.350;17.286;2023-09-30T04:29:44;31.10;45.90
38020;DHT22;23829;51.350;17.286;2023-09-30T04:32:10;31.20;45.20
38020;DHT22;23829;51.350;17.286;2023-09-30T04:34:36;31.20;45.30
38020;DHT22;23829;51.350;17.286;2023-09-30T04:37:03;31.50;44.80
38020;DHT22;23829;51.350;17.286;2023-09-30T04:39:29;31.30;44.80
38020;DHT22;23829;51.350;17.286;2023-09-30T04:41:56;31.10;45.20
38020;DHT22;23829;51.350;17.286;2023-09-30T04:44:22;31.00;45.70
38020;DHT22;23829;51.350;17.286;2023-09-30T04:46:49;31.00;45.50
38020;DHT22;23829;51.350;17.286;2023-09-30T04:49:15;30.90;45.80
38020;DHT22;23829;51.350;17.286;2023-09-30T04:51:42;31.20;45.20
38020;DHT22;23829;51.350;17.286;2023-09-30T04:54:08;31.00;45.20
38020;DHT22;23829;51.350;17.286;2023-09-30T04:56:35;31.40;45.10
38020;DHT22;23829;51.350;17.286;2023-09-30T04:59:02;31.20;45.20
38020;DHT22;23829;51.350;17.286;2023-09-30T05:01:30;31.40;45.30
38020;DHT22;23829;51.350;17.286;2023-09-30T05:03:56;31.30;44.90
38020;DHT22;23829;51.350;17.286;2023-09-30T05:06:23;31.30;45.00
38020;DHT22;23829;51.350;17.286;2023-09-30T05:08:49;31.60;44.30
38020;DHT22;23829;51.350;17.286;2023-09-30T05:11:16;31.50;44.50
38020;DHT22;23829;51.350;17.286;2023-09-30T05:13:42;31.20;44.80
38020;DHT22;23829;51.350;17.286;2023-09-30T05:16:08;30.90;45.00
38020;DHT22;23829;51.350;17.286;2023-09-30T05:18:34;30.70;45.90
38020;DHT22;23829;51.350;17.286;2023-09-30T05:21:01;31.00;45.40
38020;DHT22;23829;51.350;17.286;2023-09-30T05:23:27;31.20;45.40
38020;DHT22;23829;51.350;17.286;2023-09-30T05:25:54;31.60;44.60
38020;DHT22;23829;51.350;17.286;2023-09-30T05:28:20;31.70;44.10
38020;DHT22;23829;51.350;17.286;2023-09-30T05:30:47;31.90;43.80
38020;DHT22;23829;51.350;17.286;2023-09-30T05:33:13;31.90;43.80
38020;DHT22;23829;51.350;17.286;2023-09-30T05:35:41;31.80;44.00
38020;DHT22;23829;51.350;17.286;2023-09-30T05:38:08;31.70;43.90
38020;DHT22;23829;51.350;17.286;2023-09-30T05:40:34;31.80;43.80
38020;DHT22;23829;51.350;17.286;2023-09-30T05:43:01;31.30;44.70
38020;DHT22;23829;51.350;17.286;2023-09-30T05:45:30;31.50;44.80
38020;DHT22;23829;51.350;17.286;2023-09-30T05:47:57;31.60;44.80
38020;DHT22;23829;51.350;17.286;2023-09-30T05:50:28;31.60;44.10
38020;DHT22;23829;51.350;17.286;2023-09-30T05:52:55;31.60;44.40
38020;DHT22;23829;51.350;17.286;2023-09-30T05:55:22;31.60;44.50
38020;DHT22;23829;51.350;17.286;2023-09-30T05:57:49;31.10;45.20
38020;DHT22;23829;51.350;17.286;2023-09-30T06:00:16;30.80;46.00
38020;DHT22;23829;51.350;17.286;2023-09-30T06:02:49;30.90;46.00
38020;DHT22;23829;51.350;17.286;2023-09-30T06:05:18;30.20;47.10
38020;DHT22;23829;51.350;17.286;2023-09-30T06:07:52;30.60;47.00
38020;DHT22;23829;51.350;17.286;2023-09-30T06:10:20;30.50;46.60
38020;DHT22;23829;51.350;17.286;2023-09-30T06:12:47;30.50;46.70
38020;DHT22;23829;51.350;17.286;2023-09-30T06:15:17;30.60;46.50
38020;DHT22;23829;51.350;17.286;2023-09-30T06:17:49;30.00;47.50
38020;DHT22;23829;51.350;17.286;2023-09-30T06:20:16;30.40;46.80
38020;DHT22;23829;51.350;17.286;2023-09-30T06:22:44;30.10;47.30
38020;DHT22;23829;51.350;17.286;2023-09-30T06:25:12;30.40;46.60
38020;DHT22;23829;51.350;17.286;2023-09-30T06:27:46;30.60;45.70
38020;DHT22;23829;51.350;17.286;2023-09-30T06:30:16;30.30;46.00
38020;DHT22;23829;51.350;17.286;2023-09-30T06:32:43;30.10;46.30
38020;DHT22;23829;51.350;17.286;2023-09-30T06:35:11;29.50;47.00
38020;DHT22;23829;51.350;17.286;2023-09-30T06:37:38;28.80;48.20
38020;DHT22;23829;51.350;17.286;2023-09-30T06:40:06;29.00;48.00
38020;DHT22;23829;51.350;17.286;2023-09-30T06:42:34;29.20;47.30
38020;DHT22;23829;51.350;17.286;2023-09-30T06:45:07;29.20;47.20
38020;DHT22;23829;51.350;17.286;2023-09-30T06:47:34;29.40;46.60
38020;DHT22;23829;51.350;17.286;2023-09-30T06:50:01;29.10;46.50
38020;DHT22;23829;51.350;17.286;2023-09-30T06:52:34;29.30;46.30
38020;DHT22;23829;51.350;17.286;2023-09-30T06:55:05;29.10;46.40
38020;DHT22;23829;51.350;17.286;2023-09-30T06:57:33;29.10;46.20
38020;DHT22;23829;51.350;17.286;2023-09-30T07:00:00;29.30;45.90
38020;DHT22;23829;51.350;17.286;2023-09-30T07:02:26;29.00;46.20
38020;DHT22;23829;51.350;17.286;2023-09-30T07:04:53;28.50;47.00
38020;DHT22;23829;51.350;17.286;2023-09-30T07:07:19;28.70;46.40
38020;DHT22;23829;51.350;17.286;2023-09-30T07:09:45;28.70;46.40
38020;DHT22;23829;51.350;17.286;2023-09-30T07:12:12;28.50;46.50
38020;DHT22;23829;51.350;17.286;2023-09-30T07:14:38;28.80;45.60
38020;DHT22;23829;51.350;17.286;2023-09-30T07:17:04;28.10;46.40
38020;DHT22;23829;51.350;17.286;2023-09-30T07:19:31;28.10;46.60
38020;DHT22;23829;51.350;17.286;2023-09-30T07:21:57;28.40;46.10
38020;DHT22;23829;51.350;17.286;2023-09-30T07:24:23;28.40;46.20
38020;DHT22;23829;51.350;17.286;2023-09-30T07:26:49;28.60;45.70
38020;DHT22;23829;51.350;17.286;2023-09-30T07:29:16;28.60;45.70
38020;DHT22;23829;51.350;17.286;2023-09-30T07:31:42;28.50;45.70
38020;DHT22;23829;51.350;17.286;2023-09-30T07:34:09;28.70;45.20
38020;DHT22;23829;51.350;17.286;2023-09-30T07:36:35;28.20;46.30
38020;DHT22;23829;51.350;17.286;2023-09-30T07:39:01;28.90;45.10
38020;DHT22;23829;51.350;17.286;2023-09-30T07:41:27;29.30;44.70
38020;DHT22;23829;51.350;17.286;2023-09-30T07:44:00;29.10;44.50
38020;DHT22;23829;51.350;17.286;2023-09-30T07:46:26;29.20;44.30
38020;DHT22;23829;51.350;17.286;2023-09-30T07:48:52;29.30;44.40
38020;DHT22;23829;51.350;17.286;2023-09-30T07:51:19;28.90;44.30
38020;DHT22;23829;51.350;17.286;2023-09-30T07:53:51;28.90;44.70
38020;DHT22;23829;51.350;17.286;2023-09-30T07:56:18;29.10;44.50
38020;DHT22;23829;51.350;17.286;2023-09-30T07:58:44;29.20;44.60
38020;DHT22;23829;51.350;17.286;2023-09-30T08:01:10;29.60;43.40
38020;DHT22;23829;51.350;17.286;2023-09-30T08:03:37;29.10;43.70
38020;DHT22;23829;51.350;17.286;2023-09-30T08:06:04;29.20;43.50
38020;DHT22;23829;51.350;17.286;2023-09-30T08:08:31;29.40;43.40
38020;DHT22;23829;51.350;17.286;2023-09-30T08:10:57;29.00;43.60
38020;DHT22;23829;51.350;17.286;2023-09-30T08:13:24;29.30;43.50
38020;DHT22;23829;51.350;17.286;2023-09-30T08:15:50;29.30;43.00
38020;DHT22;23829;51.350;17.286;2023-09-30T08:18:17;28.90;43.50
38020;DHT22;23829;51.350;17.286;2023-09-30T08:20:44;29.30;43.00
38020;DHT22;23829;51.350;17.286;2023-09-30T08:23:10;29.30;43.00
38020;DHT22;23829;51.350;17.286;2023-09-30T08:25:39;29.40;42.20
38020;DHT22;23829;51.350;17.286;2023-09-30T08:28:06;29.30;42.30
38020;DHT22;23829;51.350;17.286;2023-09-30T08:30:38;29.60;41.20
38020;DHT22;23829;51.350;17.286;2023-09-30T08:33:05;29.80;40.80
38020;DHT22;23829;51.350;17.286;2023-09-30T08:35:38;30.00;40.40
38020;DHT22;23829;51.350;17.286;2023-09-30T08:38:04;29.50;40.50
38020;DHT22;23829;51.350;17.286;2023-09-30T08:40:31;29.70;40.40
38020;DHT22;23829;51.350;17.286;2023-09-30T08:42:58;29.00;40.70
38020;DHT22;23829;51.350;17.286;2023-09-30T08:45:28;29.20;40.70
38020;DHT22;23829;51.350;17.286;2023-09-30T08:47:55;29.90;40.20
38020;DHT22;23829;51.350;17.286;2023-09-30T08:50:22;30.60;39.20
38020;DHT22;23829;51.350;17.286;2023-09-30T08:52:49;30.10;40.10
38020;DHT22;23829;51.350;17.286;2023-09-30T08:55:15;30.00;40.10
38020;DHT22;23829;51.350;17.286;2023-09-30T08:57:42;30.10;40.50
38020;DHT22;23829;51.350;17.286;2023-09-30T09:00:12;30.50;39.70
38020;DHT22;23829;51.350;17.286;2023-09-30T09:02:40;30.50;39.30
38020;DHT22;23829;51.350;17.286;2023-09-30T09:05:07;30.70;38.50
38020;DHT22;23829;51.350;17.286;2023-09-30T09:07:35;30.50;38.40
38020;DHT22;23829;51.350;17.286;2023-09-30T09:10:05;30.40;38.80
38020;DHT22;23829;51.350;17.286;2023-09-30T09:12:37;29.90;38.80
38020;DHT22;23829;51.350;17.286;2023-09-30T09:15:08;30.10;38.30
38020;DHT22;23829;51.350;17.286;2023-09-30T09:17:45;29.80;38.70
38020;DHT22;23829;51.350;17.286;2023-09-30T09:20:25;30.00;39.00
38020;DHT22;23829;51.350;17.286;2023-09-30T09:22:55;30.60;38.30
38020;DHT22;23829;51.350;17.286;2023-09-30T09:25:24;30.30;38.40
38020;DHT22;23829;51.350;17.286;2023-09-30T09:27:51;30.30;37.60
38020;DHT22;23829;51.350;17.286;2023-09-30T09:30:24;30.60;37.00
38020;DHT22;23829;51.350;17.286;2023-09-30T09:33:01;30.80;36.40
38020;DHT22;23829;51.350;17.286;2023-09-30T09:35:29;30.40;37.30
38020;DHT22;23829;51.350;17.286;2023-09-30T09:38:04;30.50;37.10
38020;DHT22;23829;51.350;17.286;2023-09-30T09:40:32;30.70;36.50
38020;DHT22;23829;51.350;17.286;2023-09-30T09:42:59;30.60;36.30
38020;DHT22;23829;51.350;17.286;2023-09-30T09:45:28;30.50;35.90
38020;DHT22;23829;51.350;17.286;2023-09-30T09:47:58;29.90;36.80
38020;DHT22;23829;51.350;17.286;2023-09-30T09:50:24;30.20;37.00
38020;DHT22;23829;51.350;17.286;2023-09-30T09:52:52;30.40;36.60
38020;DHT22;23829;51.350;17.286;2023-09-30T09:55:25;30.60;34.90
38020;DHT22;23829;51.350;17.286;2023-09-30T09:57:52;30.20;35.30
38020;DHT22;23829;51.350;17.286;2023-09-30T10:00:21;30.10;35.00
38020;DHT22;23829;51.350;17.286;2023-09-30T10:02:50;29.70;36.40
38020;DHT22;23829;51.350;17.286;2023-09-30T10:05:18;29.80;36.20
38020;DHT22;23829;51.350;17.286;2023-09-30T10:07:57;30.10;35.40
38020;DHT22;23829;51.350;17.286;2023-09-30T10:10:26;29.60;36.30
38020;DHT22;23829;51.350;17.286;2023-09-30T10:12:54;29.60;35.50
38020;DHT22;23829;51.350;17.286;2023-09-30T10:18:08;29.30;36.10
38020;DHT22;23829;51.350;17.286;2023-09-30T10:20:39;29.90;36.30
38020;DHT22;23829;51.350;17.286;2023-09-30T10:25:44;30.30;35.10
38020;DHT22;23829;51.350;17.286;2023-09-30T10:31:27;30.30;36.10
38020;DHT22;23829;51.350;17.286;2023-09-30T10:36:39;30.70;34.60
38020;DHT22;23829;51.350;17.286;2023-09-30T10:39:14;30.90;33.70
38020;DHT22;23829;51.350;17.286;2023-09-30T10:49:40;32.00;33.20
38020;DHT22;23829;51.350;17.286;2023-09-30T10:52:06;31.30;33.40
38020;DHT22;23829;51.350;17.286;2023-09-30T10:54:33;31.40;33.60
38020;DHT22;23829;51.350;17.286;2023-09-30T10:57:00;31.10;34.10
38020;DHT22;23829;51.350;17.286;2023-09-30T10:59:28;31.00;33.70
38020;DHT22;23829;51.350;17.286;2023-09-30T11:01:57;31.10;33.60
38020;DHT22;23829;51.350;17.286;2023-09-30T11:04:23;30.60;33.60
38020;DHT22;23829;51.350;17.286;2023-09-30T11:06:49;30.60;33.70
38020;DHT22;23829;51.350;17.286;2023-09-30T11:09:20;30.50;33.80
38020;DHT22;23829;51.350;17.286;2023-09-30T11:11:52;31.10;34.10
38020;DHT22;23829;51.350;17.286;2023-09-30T11:14:30;31.50;33.00
38020;DHT22;23829;51.350;17.286;2023-09-30T11:17:01;31.10;33.30
38020;DHT22;23829;51.350;17.286;2023-09-30T11:19:45;31.20;33.60
38020;DHT22;23829;51.350;17.286;2023-09-30T11:22:12;30.70;34.20
38020;DHT22;23829;51.350;17.286;2023-09-30T11:24:39;30.50;34.80
38020;DHT22;23829;51.350;17.286;2023-09-30T11:27:05;30.40;34.20
38020;DHT22;23829;51.350;17.286;2023-09-30T11:29:31;30.10;34.90
38020;DHT22;23829;51.350;17.286;2023-09-30T11:31:58;30.00;35.20
38020;DHT22;23829;51.350;17.286;2023-09-30T11:34:35;30.20;34.30
38020;DHT22;23829;51.350;17.286;2023-09-30T11:37:02;30.20;35.00
38020;DHT22;23829;51.350;17.286;2023-09-30T11:39:29;30.30;34.90
38020;DHT22;23829;51.350;17.286;2023-09-30T11:41:56;30.70;33.90
38020;DHT22;23829;51.350;17.286;2023-09-30T11:44:24;31.00;33.00
38020;DHT22;23829;51.350;17.286;2023-09-30T11:46:59;30.20;34.00
38020;DHT22;23829;51.350;17.286;2023-09-30T11:49:31;29.90;34.60
38020;DHT22;23829;51.350;17.286;2023-09-30T11:51:59;30.30;34.90
38020;DHT22;23829;51.350;17.286;2023-09-30T11:54:36;30.70;33.50
38020;DHT22;23829;51.350;17.286;2023-09-30T11:57:05;31.00;33.50
38020;DHT22;23829;51.350;17.286;2023-09-30T11:59:32;30.80;32.80
38020;DHT22;23829;51.350;17.286;2023-09-30T12:01:58;30.70;33.20
38020;DHT22;23829;51.350;17.286;2023-09-30T12:04:25;30.90;33.40
38020;DHT22;23829;51.350;17.286;2023-09-30T12:06:51;30.90;32.80
38020;DHT22;23829;51.350;17.286;2023-09-30T12:09:18;31.10;32.10
38020;DHT22;23829;51.350;17.286;2023-09-30T12:11:49;30.70;33.10
38020;DHT22;23829;51.350;17.286;2023-09-30T12:14:15;30.50;33.90
38020;DHT22;23829;51.350;17.286;2023-09-30T12:16:42;30.20;34.30
38020;DHT22;23829;51.350;17.286;2023-09-30T12:19:10;30.00;34.80
38020;DHT22;23829;51.350;17.286;2023-09-30T12:21:36;30.00;35.10
38020;DHT22;23829;51.350;17.286;2023-09-30T12:24:03;30.90;33.10
38020;DHT22;23829;51.350;17.286;2023-09-30T12:26:33;31.10;32.90
38020;DHT22;23829;51.350;17.286;2023-09-30T12:28:59;31.00;34.00
38020;DHT22;23829;51.350;17.286;2023-09-30T12:31:25;30.60;33.40
38020;DHT22;23829;51.350;17.286;2023-09-30T12:33:52;30.20;34.40
38020;DHT22;23829;51.350;17.286;2023-09-30T12:36:19;30.10;33.60
38020;DHT22;23829;51.350;17.286;2023-09-30T12:38:46;30.30;33.70
38020;DHT22;23829;51.350;17.286;2023-09-30T12:41:13;29.70;34.60
38020;DHT22;23829;51.350;17.286;2023-09-30T12:43:40;30.20;33.40
38020;DHT22;23829;51.350;17.286;2023-09-30T12:46:09;30.10;34.00
38020;DHT22;23829;51.350;17.286;2023-09-30T12:48:35;29.90;33.50
38020;DHT22;23829;51.350;17.286;2023-09-30T12:51:04;29.50;34.50
38020;DHT22;23829;51.350;17.286;2023-09-30T12:53:35;30.40;33.50
38020;DHT22;23829;51.350;17.286;2023-09-30T12:56:02;30.50;33.40
38020;DHT22;23829;51.350;17.286;2023-09-30T12:58:28;30.60;33.70
38020;DHT22;23829;51.350;17.286;2023-09-30T13:00:57;30.50;33.80
38020;DHT22;23829;51.350;17.286;2023-09-30T13:03:24;30.60;34.00
38020;DHT22;23829;51.350;17.286;2023-09-30T13:05:50;30.90;33.50
38020;DHT22;23829;51.350;17.286;2023-09-30T13:08:17;30.90;32.70
38020;DHT22;23829;51.350;17.286;2023-09-30T13:10:43;30.70;33.30
38020;DHT22;23829;51.350;17.286;2023-09-30T13:13:10;30.40;33.60
38020;DHT22;23829;51.350;17.286;2023-09-30T13:15:36;30.20;33.70
38020;DHT22;23829;51.350;17.286;2023-09-30T13:18:04;30.40;33.60
38020;DHT22;23829;51.350;17.286;2023-09-30T13:20:31;30.30;34.40
38020;DHT22;23829;51.350;17.286;2023-09-30T13:22:58;30.50;33.60
38020;DHT22;23829;51.350;17.286;2023-09-30T13:25:24;30.00;33.90
38020;DHT22;23829;51.350;17.286;2023-09-30T13:27:52;30.00;34.10
38020;DHT22;23829;51.350;17.286;2023-09-30T13:30:18;30.30;33.70
38020;DHT22;23829;51.350;17.286;2023-09-30T13:32:45;30.20;34.00
38020;DHT22;23829;51.350;17.286;2023-09-30T13:35:12;30.80;33.20
38020;DHT22;23829;51.350;17.286;2023-09-30T13:37:38;30.50;32.80
38020;DHT22;23829;51.350;17.286;2023-09-30T13:40:05;30.50;32.70
38020;DHT22;23829;51.350;17.286;2023-09-30T13:42:34;30.70;32.30
38020;DHT22;23829;51.350;17.286;2023-09-30T13:45:02;30.60;32.70
38020;DHT22;23829;51.350;17.286;2023-09-30T13:47:29;31.10;32.40
38020;DHT22;23829;51.350;17.286;2023-09-30T13:49:55;31.20;31.80
38020;DHT22;23829;51.350;17.286;2023-09-30T13:52:22;31.00;31.90
38020;DHT22;23829;51.350;17.286;2023-09-30T13:54:48;31.30;31.20
38020;DHT22;23829;51.350;17.286;2023-09-30T13:57:15;30.70;31.90
38020;DHT22;23829;51.350;17.286;2023-09-30T13:59:41;30.30;32.50
38020;DHT22;23829;51.350;17.286;2023-09-30T14:02:10;30.60;32.10
38020;DHT22;23829;51.350;17.286;2023-09-30T14:04:37;30.30;32.60
38020;DHT22;23829;51.350;17.286;2023-09-30T14:07:04;30.40;32.70
38020;DHT22;23829;51.350;17.286;2023-09-30T14:09:31;29.90;33.30
38020;DHT22;23829;51.350;17.286;2023-09-30T14:11:57;29.90;33.50
38020;DHT22;23829;51.350;17.286;2023-09-30T14:14:25;29.90;34.10
38020;DHT22;23829;51.350;17.286;2023-09-30T14:16:52;29.80;34.10
38020;DHT22;23829;51.350;17.286;2023-09-30T14:19:18;30.10;33.50
38020;DHT22;23829;51.350;17.286;2023-09-30T14:21:45;30.20;33.10
38020;DHT22;23829;51.350;17.286;2023-09-30T14:24:12;30.30;33.10
38020;DHT22;23829;51.350;17.286;2023-09-30T14:26:38;30.80;32.70
38020;DHT22;23829;51.350;17.286;2023-09-30T14:29:05;30.70;32.60
38020;DHT22;23829;51.350;17.286;2023-09-30T14:31:31;30.50;33.20
38020;DHT22;23829;51.350;17.286;2023-09-30T14:33:57;30.70;32.90
38020;DHT22;23829;51.350;17.286;2023-09-30T14:36:24;30.60;32.40
38020;DHT22;23829;51.350;17.286;2023-09-30T14:38:50;30.70;32.60
38020;DHT22;23829;51.350;17.286;2023-09-30T14:41:16;30.50;32.80
38020;DHT22;23829;51.350;17.286;2023-09-30T14:43:43;30.30;32.80
38020;DHT22;23829;51.350;17.286;2023-09-30T14:46:10;30.70;32.50
38020;DHT22;23829;51.350;17.286;2023-09-30T14:48:36;30.40;33.00
38020;DHT22;23829;51.350;17.286;2023-09-30T14:51:02;30.60;32.40
38020;DHT22;23829;51.350;17.286;2023-09-30T14:53:32;30.50;32.80
38020;DHT22;23829;51.350;17.286;2023-09-30T14:55:58;30.10;33.50
38020;DHT22;23829;51.350;17.286;2023-09-30T14:58:24;30.30;33.50
38020;DHT22;23829;51.350;17.286;2023-09-30T15:00:51;30.20;33.70
38020;DHT22;23829;51.350;17.286;2023-09-30T15:03:17;30.40;33.20
38020;DHT22;23829;51.350;17.286;2023-09-30T15:05:43;30.60;33.20
38020;DHT22;23829;51.350;17.286;2023-09-30T15:08:10;30.40;33.40
38020;DHT22;23829;51.350;17.286;2023-09-30T15:10:36;30.80;33.40
38020;DHT22;23829;51.350;17.286;2023-09-30T15:13:03;30.80;33.60
38020;DHT22;23829;51.350;17.286;2023-09-30T15:15:36;31.00;33.70
38020;DHT22;23829;51.350;17.286;2023-09-30T15:18:03;30.60;34.30
38020;DHT22;23829;51.350;17.286;2023-09-30T15:20:29;30.70;34.60
38020;DHT22;23829;51.350;17.286;2023-09-30T15:22:55;30.30;34.40
38020;DHT22;23829;51.350;17.286;2023-09-30T15:25:22;30.50;35.70
38020;DHT22;23829;51.350;17.286;2023-09-30T15:27:48;30.70;34.70
38020;DHT22;23829;51.350;17.286;2023-09-30T15:30:14;30.80;34.00
38020;DHT22;23829;51.350;17.286;2023-09-30T15:32:40;30.70;34.20
38020;DHT22;23829;51.350;17.286;2023-09-30T15:35:08;30.80;34.60
38020;DHT22;23829;51.350;17.286;2023-09-30T15:37:34;30.80;34.50